createdAt,value
2018-05-08T00:02:03.146Z,12.82
2018-05-08T00:04:31.606Z,12.79
2018-05-08T00:07:00.107Z,12.82
2018-05-08T00:09:28.616Z,12.78
2018-05-08T00:11:57.112Z,12.67
2018-05-08T00:14:25.579Z,12.80
2018-05-08T00:16:54.081Z,12.83
2018-05-08T00:19:22.528Z,12.78
2018-05-08T00:21:51.036Z,12.59
2018-05-08T00:24:19.484Z,12.63
2018-05-08T00:26:48.746Z,12.59
2018-05-08T00:29:17.241Z,12.60
2018-05-08T00:31:45.732Z,12.75
2018-05-08T00:34:14.193Z,12.72
2018-05-08T00:36:42.678Z,12.70
2018-05-08T00:39:11.159Z,12.72
2018-05-08T00:41:39.650Z,12.69
2018-05-08T00:44:08.114Z,12.85
2018-05-08T00:46:36.587Z,12.95
2018-05-08T00:49:05.070Z,12.91
2018-05-08T00:51:33.537Z,12.79
2018-05-08T00:54:02.809Z,12.77
2018-05-08T00:56:31.346Z,12.80
2018-05-08T00:58:59.853Z,12.69
2018-05-08T01:01:28.321Z,12.52
2018-05-08T01:03:56.818Z,12.34
2018-05-08T01:06:25.261Z,12.43
2018-05-08T01:08:54.503Z,12.38
2018-05-08T01:11:22.996Z,12.34
2018-05-08T01:13:51.514Z,12.38
2018-05-08T01:16:20.794Z,12.25
2018-05-08T01:18:49.280Z,12.06
2018-05-08T01:21:17.755Z,12.08
2018-05-08T01:23:46.242Z,12.01
2018-05-08T01:26:14.719Z,12.10
2018-05-08T01:28:43.182Z,12.05
2018-05-08T01:31:11.678Z,12.02
2018-05-08T01:33:40.153Z,11.96
2018-05-08T01:36:08.645Z,12.00
2018-05-08T01:38:37.112Z,11.84
2018-05-08T01:41:05.630Z,11.82
2018-05-08T01:43:34.133Z,11.76
2018-05-08T01:46:02.632Z,11.72
2018-05-08T01:48:31.108Z,11.82
2018-05-08T01:50:59.597Z,12.09
2018-05-08T01:53:28.082Z,12.30
2018-05-08T01:55:56.585Z,12.49
2018-05-08T01:58:25.094Z,12.65
2018-05-08T02:00:54.326Z,12.75
2018-05-08T02:03:22.848Z,12.92
2018-05-08T02:05:51.315Z,13.05
2018-05-08T02:08:19.922Z,13.14
2018-05-08T02:10:48.375Z,13.15
2018-05-08T02:13:16.868Z,13.24
2018-05-08T02:15:45.332Z,13.32
2018-05-08T02:18:13.830Z,13.31
2018-05-08T02:20:42.293Z,13.36
2018-05-08T02:23:11.556Z,13.32
2018-05-08T02:25:40.040Z,13.32
2018-05-08T02:28:08.583Z,13.28
2018-05-08T02:30:37.050Z,13.33
2018-05-08T02:33:05.559Z,13.32
2018-05-08T02:35:34.027Z,13.31
2018-05-08T02:38:03.278Z,13.45
2018-05-08T02:40:31.734Z,13.45
2018-05-08T02:43:00.215Z,13.37
2018-05-08T02:45:28.727Z,13.41
2018-05-08T02:47:57.203Z,13.37
2018-05-08T02:50:25.734Z,13.32
2018-05-08T02:52:54.224Z,13.37
2018-05-08T02:55:23.514Z,13.24
2018-05-08T02:57:51.997Z,13.20
2018-05-08T03:00:20.481Z,12.97
2018-05-08T03:02:49.062Z,13.00
2018-05-08T03:05:17.561Z,13.05
2018-05-08T03:07:46.082Z,12.98
2018-05-08T03:10:14.570Z,12.97
2018-05-08T03:12:43.042Z,12.96
2018-05-08T03:15:12.300Z,12.97
2018-05-08T03:17:40.760Z,12.90
2018-05-08T03:20:09.246Z,12.85
2018-05-08T03:22:37.741Z,12.92
2018-05-08T03:25:06.221Z,13.07
2018-05-08T03:27:34.748Z,13.01
2018-05-08T03:30:03.301Z,13.02
2018-05-08T03:32:32.593Z,13.05
2018-05-08T03:35:01.099Z,13.03
2018-05-08T03:37:29.594Z,13.13
2018-05-08T03:39:58.041Z,13.46
2018-05-08T03:42:26.588Z,13.44
2018-05-08T03:44:55.049Z,13.64
2018-05-08T03:47:23.753Z,13.57
2018-05-08T03:49:52.208Z,13.79
2018-05-08T03:52:20.709Z,13.92
2018-05-08T03:54:49.180Z,14.16
2018-05-08T03:57:17.731Z,14.29
2018-05-08T03:59:46.206Z,14.48
2018-05-08T04:02:32.322Z,14.52
2018-05-08T04:05:18.760Z,14.64
2018-05-08T04:08:04.987Z,14.59
2018-05-08T04:10:34.216Z,14.76
2018-05-08T04:13:02.706Z,14.89
2018-05-08T04:15:31.173Z,14.93
2018-05-08T04:17:59.666Z,15.00
2018-05-08T04:20:28.114Z,15.08
2018-05-08T04:22:57.389Z,15.17
2018-05-08T04:25:25.839Z,15.23
2018-05-08T04:27:54.321Z,15.20
2018-05-08T04:30:22.803Z,15.27
2018-05-08T04:32:51.265Z,15.31
2018-05-08T04:35:20.529Z,15.33
2018-05-08T04:37:49.019Z,15.39
2018-05-08T04:40:17.517Z,15.33
2018-05-08T04:42:45.964Z,15.33
2018-05-08T04:45:14.440Z,15.40
2018-05-08T04:47:42.891Z,15.48
2018-05-08T04:50:11.386Z,15.54
2018-05-08T04:52:40.611Z,15.66
2018-05-08T04:55:09.096Z,15.64
2018-05-08T04:57:37.580Z,15.65
2018-05-08T05:00:06.178Z,15.69
2018-05-08T05:02:34.742Z,15.78
2018-05-08T05:05:04.045Z,15.88
2018-05-08T05:07:33.282Z,15.98
2018-05-08T05:10:01.815Z,15.93
2018-05-08T05:12:31.042Z,16.00
2018-05-08T05:14:59.528Z,16.05
2018-05-08T05:17:28.006Z,16.12
2018-05-08T05:19:57.264Z,16.12
2018-05-08T05:22:25.868Z,16.17
2018-05-08T05:24:54.309Z,16.31
2018-05-08T05:27:22.927Z,16.31
2018-05-08T05:29:51.388Z,16.33
2018-05-08T05:32:19.882Z,16.33
2018-05-08T05:34:48.348Z,16.26
2018-05-08T05:37:16.841Z,16.31
2018-05-08T05:39:45.274Z,16.37
2018-05-08T05:42:14.563Z,16.51
2018-05-08T05:44:43.009Z,16.51
2018-05-08T05:47:11.484Z,16.54
2018-05-08T05:49:39.930Z,16.57
2018-05-08T05:52:08.432Z,16.54
2018-05-08T05:54:36.915Z,16.65
2018-05-08T05:57:05.385Z,16.61
2018-05-08T05:59:33.878Z,16.82
2018-05-08T06:02:02.333Z,16.95
2018-05-08T06:04:30.809Z,16.86
2018-05-08T06:06:59.253Z,16.88
2018-05-08T06:09:28.506Z,17.02
2018-05-08T06:11:56.954Z,17.14
2018-05-08T06:14:25.433Z,17.18
2018-05-08T06:16:53.905Z,17.26
2018-05-08T06:19:23.146Z,17.27
2018-05-08T06:21:51.607Z,17.35
2018-05-08T06:24:20.117Z,17.53
2018-05-08T06:26:48.566Z,17.62
2018-05-08T06:29:17.809Z,17.77
2018-05-08T06:31:46.299Z,17.91
2018-05-08T06:34:14.764Z,17.70
2018-05-08T06:36:43.208Z,17.76
2018-05-08T06:39:12.474Z,17.89
2018-05-08T06:41:40.927Z,17.90
2018-05-08T06:44:09.404Z,18.02
2018-05-08T06:46:38.686Z,18.25
2018-05-08T06:49:07.118Z,18.20
2018-05-08T06:51:35.573Z,18.24
2018-05-08T06:54:04.032Z,18.25
2018-05-08T06:56:32.573Z,18.28
2018-05-08T06:59:01.024Z,18.39
2018-05-08T07:01:29.524Z,18.45
2018-05-08T07:03:57.972Z,18.47
2018-05-08T07:06:26.447Z,18.53
2018-05-08T07:08:55.729Z,18.59
2018-05-08T07:11:24.209Z,18.71
2018-05-08T07:13:52.652Z,18.73
2018-05-08T07:16:21.912Z,18.87
2018-05-08T07:18:50.394Z,18.93
2018-05-08T07:21:18.920Z,19.11
2018-05-08T07:23:48.134Z,19.19
2018-05-08T07:26:17.386Z,19.29
2018-05-08T07:28:45.852Z,19.41
2018-05-08T07:31:15.135Z,19.43
2018-05-08T07:33:44.353Z,19.60
2018-05-08T07:36:12.846Z,19.50
2018-05-08T07:38:41.316Z,19.67
2018-05-08T07:41:09.792Z,19.75
2018-05-08T07:43:39.738Z,19.89
2018-05-08T07:46:08.231Z,19.89
2018-05-08T07:48:37.437Z,19.81
2018-05-08T07:51:05.914Z,19.95
2018-05-08T07:53:34.371Z,20.10
2018-05-08T07:56:03.621Z,20.03
2018-05-08T07:58:32.072Z,20.15
2018-05-08T08:01:00.574Z,20.28
2018-05-08T08:03:29.022Z,20.48
2018-05-08T08:05:58.280Z,20.55
2018-05-08T08:08:26.866Z,20.62
2018-05-08T08:10:55.351Z,20.79
2018-05-08T08:13:23.805Z,20.79
2018-05-08T08:15:52.290Z,20.96
2018-05-08T08:18:20.740Z,21.04
2018-05-08T08:20:49.978Z,21.05
2018-05-08T08:23:18.427Z,21.20
2018-05-08T08:25:47.669Z,21.29
2018-05-08T08:28:16.124Z,21.11
2018-05-08T08:30:45.367Z,21.29
2018-05-08T08:33:13.831Z,21.30
2018-05-08T08:35:42.300Z,21.32
2018-05-08T08:38:11.524Z,21.51
2018-05-08T08:40:39.993Z,21.45
2018-05-08T08:43:09.256Z,21.37
2018-05-08T08:45:37.702Z,21.37
2018-05-08T08:48:06.214Z,21.40
2018-05-08T08:50:34.695Z,21.43
2018-05-08T08:53:03.164Z,21.69
2018-05-08T08:55:31.614Z,21.90
2018-05-08T08:58:00.929Z,21.90
2018-05-08T09:00:30.136Z,21.79
2018-05-08T09:02:58.617Z,21.56
2018-05-08T09:05:27.854Z,21.58
2018-05-08T09:07:56.507Z,21.68
2018-05-08T09:10:24.997Z,21.58
2018-05-08T09:12:54.298Z,21.78
2018-05-08T09:15:23.504Z,21.92
2018-05-08T09:17:52.769Z,21.91
2018-05-08T09:20:21.216Z,21.88
2018-05-08T09:22:50.474Z,21.79
2018-05-08T09:25:18.981Z,22.02
2018-05-08T09:27:47.557Z,22.00
2018-05-08T09:30:15.961Z,22.23
2018-05-08T09:32:44.436Z,21.73
2018-05-08T09:35:13.663Z,21.93
2018-05-08T09:37:42.451Z,21.86
2018-05-08T09:40:10.932Z,22.10
2018-05-08T09:42:39.562Z,22.06
2018-05-08T09:45:08.012Z,22.16
2018-05-08T09:47:36.599Z,22.44
2018-05-08T09:50:05.353Z,22.48
2018-05-08T09:52:34.690Z,22.41
2018-05-08T09:55:03.137Z,22.47
2018-05-08T09:57:31.742Z,22.37
2018-05-08T10:00:00.957Z,22.31
2018-05-08T10:02:29.648Z,22.14
2018-05-08T10:04:58.104Z,22.22
2018-05-08T10:07:26.695Z,22.41
2018-05-08T10:09:55.920Z,22.58
2018-05-08T10:12:24.582Z,22.78
2018-05-08T10:14:53.017Z,22.70
2018-05-08T10:17:21.710Z,22.87
2018-05-08T10:19:50.187Z,22.95
2018-05-08T10:22:18.649Z,22.94
2018-05-08T10:24:47.139Z,22.91
2018-05-08T10:27:15.658Z,23.09
2018-05-08T10:29:44.157Z,22.87
2018-05-08T10:32:13.558Z,22.92
2018-05-08T10:34:42.044Z,22.70
2018-05-08T10:37:10.514Z,22.71
2018-05-08T10:39:39.004Z,22.83
2018-05-08T10:42:07.445Z,23.05
2018-05-08T10:44:36.703Z,23.16
2018-05-08T10:47:05.145Z,23.13
2018-05-08T10:49:33.631Z,23.21
2018-05-08T10:52:02.090Z,23.30
2018-05-08T10:54:30.578Z,23.55
2018-05-08T10:56:59.050Z,23.79
2018-05-08T10:59:27.524Z,23.71
2018-05-08T11:01:55.968Z,23.80
2018-05-08T11:04:24.452Z,23.71
2018-05-08T11:06:52.919Z,23.78
2018-05-08T11:09:21.378Z,23.72
2018-05-08T11:11:49.896Z,23.87
2018-05-08T11:14:18.356Z,23.94
2018-05-08T11:16:46.843Z,24.03
2018-05-08T11:19:16.086Z,23.97
2018-05-08T11:21:44.557Z,23.76
2018-05-08T11:24:13.022Z,24.15
2018-05-08T11:26:41.543Z,24.08
2018-05-08T11:29:10.713Z,23.93
2018-05-08T11:31:39.983Z,24.11
2018-05-08T11:34:08.427Z,24.11
2018-05-08T11:36:36.913Z,23.98
2018-05-08T11:39:06.280Z,23.96
2018-05-08T11:41:34.767Z,24.00
2018-05-08T11:44:03.230Z,24.10
2018-05-08T11:46:31.705Z,23.95
2018-05-08T11:49:00.157Z,24.18
2018-05-08T11:51:28.637Z,24.24
2018-05-08T11:53:57.096Z,24.52
2018-05-08T11:56:25.651Z,23.99
2018-05-08T11:58:54.109Z,23.99
2018-05-08T12:01:22.626Z,24.25
2018-05-08T12:03:51.073Z,24.40
2018-05-08T12:06:19.555Z,24.40
2018-05-08T12:08:47.999Z,24.13
2018-05-08T12:11:16.466Z,24.21
2018-05-08T12:13:44.941Z,24.54
2018-05-08T12:16:13.438Z,24.40
2018-05-08T12:18:41.910Z,24.57
2018-05-08T12:21:10.520Z,24.48
2018-05-08T12:23:38.967Z,24.60
2018-05-08T12:26:08.384Z,24.72
2018-05-08T12:28:36.884Z,24.82
2018-05-08T12:31:05.353Z,24.76
2018-05-08T12:33:33.838Z,24.65
2018-05-08T12:36:02.305Z,24.86
2018-05-08T12:38:30.802Z,25.16
2018-05-08T12:41:00.066Z,25.39
2018-05-08T12:43:29.322Z,25.55
2018-05-08T12:45:57.822Z,25.10
2018-05-08T12:48:26.328Z,25.36
2018-05-08T12:50:54.789Z,25.31
2018-05-08T12:53:23.294Z,25.34
2018-05-08T12:55:51.758Z,24.99
2018-05-08T12:58:20.237Z,25.15
2018-05-08T13:00:48.724Z,25.29
2018-05-08T13:03:17.835Z,25.22
2018-05-08T13:05:46.323Z,25.55
2018-05-08T13:08:14.797Z,25.67
2018-05-08T13:10:43.292Z,25.63
2018-05-08T13:13:11.739Z,25.80
2018-05-08T13:15:40.212Z,25.72
2018-05-08T13:18:09.462Z,25.82
2018-05-08T13:20:37.947Z,25.97
2018-05-08T13:23:06.432Z,25.91
2018-05-08T13:25:34.926Z,26.14
2018-05-08T13:28:03.417Z,26.09
2018-05-08T13:30:31.873Z,25.97
2018-05-08T13:33:00.366Z,25.64
2018-05-08T13:35:28.837Z,25.76
2018-05-08T13:37:57.314Z,25.55
2018-05-08T13:40:25.798Z,25.34
2018-05-08T13:42:54.274Z,25.51
2018-05-08T13:45:22.713Z,25.48
2018-05-08T13:47:51.212Z,25.48
2018-05-08T13:50:48.417Z,25.47
2018-05-08T13:53:16.928Z,25.54
2018-05-08T13:55:45.444Z,25.41
2018-05-08T13:58:14.761Z,25.55
2018-05-08T14:00:43.220Z,25.75
2018-05-08T14:03:11.698Z,25.53
2018-05-08T14:05:40.144Z,25.80
2018-05-08T14:08:08.844Z,26.03
2018-05-08T14:10:37.292Z,26.05
2018-05-08T14:13:06.638Z,25.87
2018-05-08T14:15:35.045Z,25.68
2018-05-08T14:18:03.544Z,25.58
2018-05-08T14:20:32.018Z,25.62
2018-05-08T14:23:00.500Z,25.78
2018-05-08T14:25:28.948Z,25.80
2018-05-08T14:27:57.457Z,25.68
2018-05-08T14:30:25.914Z,25.90
2018-05-08T14:32:54.468Z,25.92
2018-05-08T14:35:23.712Z,25.59
2018-05-08T14:37:52.229Z,25.61
2018-05-08T14:40:20.725Z,25.75
2018-05-08T14:42:49.232Z,25.85
2018-05-08T14:45:18.459Z,25.43
2018-05-08T14:47:47.177Z,25.51
2018-05-08T14:50:15.792Z,25.29
2018-05-08T14:52:44.526Z,25.24
2018-05-08T14:55:13.011Z,25.15
2018-05-08T14:57:41.907Z,25.35
2018-05-08T15:00:10.509Z,25.41
2018-05-08T15:02:39.288Z,25.51
2018-05-08T15:05:07.918Z,25.54
2018-05-08T15:07:36.818Z,25.39
2018-05-08T15:10:05.619Z,25.28
2018-05-08T15:12:34.177Z,25.38
2018-05-08T15:15:02.705Z,25.26
2018-05-08T15:17:31.197Z,25.19
2018-05-08T15:20:00.498Z,25.00
2018-05-08T15:22:29.199Z,25.01
2018-05-08T15:24:58.481Z,24.77
2018-05-08T15:27:27.341Z,24.70
2018-05-08T15:29:56.606Z,24.68
2018-05-08T15:32:27.525Z,24.82
2018-05-08T15:34:56.010Z,24.77
2018-05-08T15:37:24.474Z,24.71
2018-05-08T15:39:52.996Z,24.90
2018-05-08T15:42:22.212Z,24.98
2018-05-08T15:44:51.478Z,25.00
2018-05-08T15:47:19.976Z,25.11
2018-05-08T15:49:49.312Z,24.91
2018-05-08T15:52:17.763Z,24.77
2018-05-08T15:54:46.238Z,24.65
2018-05-08T15:57:14.799Z,24.92
2018-05-08T15:59:43.292Z,24.66
2018-05-08T16:02:11.870Z,24.67
2018-05-08T16:04:40.290Z,24.74
2018-05-08T16:07:09.547Z,24.80
2018-05-08T16:09:41.538Z,24.89
2018-05-08T16:12:10.828Z,24.84
2018-05-08T16:14:39.325Z,24.79
2018-05-08T16:17:07.816Z,24.84
2018-05-08T16:19:36.270Z,24.69
2018-05-08T16:22:04.791Z,24.48
2018-05-08T16:24:33.317Z,24.26
2018-05-08T16:27:03.490Z,24.28
2018-05-08T16:29:32.004Z,24.34
2018-05-08T16:32:01.343Z,24.31
2018-05-08T16:34:29.985Z,24.37
2018-05-08T16:36:58.578Z,24.47
2018-05-08T16:39:27.187Z,24.34
2018-05-08T16:41:56.566Z,24.14
2018-05-08T16:44:25.230Z,23.94
2018-05-08T16:46:54.013Z,24.02
2018-05-08T16:49:23.602Z,24.02
2018-05-08T16:51:52.141Z,24.11
2018-05-08T16:54:21.296Z,24.01
2018-05-08T16:56:50.580Z,24.06
2018-05-08T16:59:22.647Z,23.89
2018-05-08T17:01:51.174Z,24.04
2018-05-08T17:04:19.936Z,23.81
2018-05-08T17:06:51.872Z,23.70
2018-05-08T17:09:20.383Z,23.81
2018-05-08T17:11:49.672Z,23.82
2018-05-08T17:14:18.133Z,23.68
2018-05-08T17:16:49.801Z,23.67
2018-05-08T17:19:19.310Z,23.81
2018-05-08T17:21:47.795Z,23.73
2018-05-08T17:24:16.275Z,23.73
2018-05-08T17:26:44.804Z,23.48
2018-05-08T17:29:14.081Z,23.34
2018-05-08T17:31:42.605Z,23.22
2018-05-08T17:34:11.990Z,23.27
2018-05-08T17:36:40.614Z,23.18
2018-05-08T17:39:09.117Z,23.11
2018-05-08T17:41:38.765Z,23.27
2018-05-08T17:44:10.149Z,23.14
2018-05-08T17:49:23.295Z,22.83
2018-05-08T17:51:54.970Z,22.66
2018-05-08T17:54:24.296Z,22.63
2018-05-08T17:56:53.931Z,22.70
2018-05-08T17:59:22.419Z,22.52
2018-05-08T18:01:50.950Z,22.69
2018-05-08T18:04:20.379Z,22.61
2018-05-08T18:06:48.802Z,22.36
2018-05-08T18:09:17.274Z,22.21
2018-05-08T18:11:45.798Z,22.35
2018-05-08T18:14:15.057Z,22.20
2018-05-08T18:16:43.616Z,22.27
2018-05-08T18:19:12.098Z,22.36
2018-05-08T18:21:40.597Z,22.25
2018-05-08T18:24:09.188Z,22.02
2018-05-08T18:26:37.636Z,21.99
2018-05-08T18:29:06.966Z,21.86
2018-05-08T18:31:35.428Z,21.93
2018-05-08T18:34:04.762Z,21.92
2018-05-08T18:36:33.680Z,21.82
2018-05-08T18:39:02.209Z,21.72
2018-05-08T18:41:31.575Z,21.52
2018-05-08T18:44:00.085Z,21.60
2018-05-08T18:46:29.372Z,21.47
2018-05-08T18:48:57.858Z,21.34
2018-05-08T18:51:26.363Z,21.21
2018-05-08T18:53:54.858Z,21.11
2018-05-08T18:56:24.186Z,21.03
2018-05-08T18:58:52.718Z,21.00
2018-05-08T19:01:21.197Z,20.98
2018-05-08T19:03:49.717Z,20.87
2018-05-08T19:06:18.972Z,20.76
2018-05-08T19:08:47.476Z,20.62
2018-05-08T19:11:21.493Z,20.41
2018-05-08T19:13:50.246Z,20.17
2018-05-08T19:16:19.732Z,19.86
2018-05-08T19:18:55.572Z,19.75
2018-05-08T19:21:24.131Z,19.58
2018-05-08T19:23:58.169Z,19.31
2018-05-08T19:26:27.193Z,19.17
2018-05-08T19:29:01.124Z,19.09
2018-05-08T19:31:29.614Z,19.05
2018-05-08T19:33:58.154Z,18.98
2018-05-08T19:36:32.286Z,18.97
2018-05-08T19:39:00.925Z,19.00
2018-05-08T19:41:29.634Z,19.00
2018-05-08T19:43:58.118Z,18.94
2018-05-08T19:46:26.625Z,18.87
2018-05-08T19:48:55.892Z,18.76
2018-05-08T19:51:24.356Z,18.61
2018-05-08T19:53:52.854Z,18.47
2018-05-08T19:56:21.338Z,18.28
2018-05-08T19:58:49.825Z,18.10
2018-05-08T20:01:18.313Z,17.89
2018-05-08T20:03:46.815Z,17.75
2018-05-08T20:06:15.664Z,17.55
2018-05-08T20:08:44.137Z,17.25
2018-05-08T20:11:13.516Z,17.10
2018-05-08T20:13:42.054Z,17.13
2018-05-08T20:16:10.564Z,16.95
2018-05-08T20:18:39.046Z,16.87
2018-05-08T20:21:07.567Z,16.68
2018-05-08T20:23:36.840Z,16.37
2018-05-08T20:26:05.358Z,16.42
2018-05-08T20:28:33.857Z,16.41
2018-05-08T20:31:03.132Z,16.26
2018-05-08T20:33:31.662Z,16.18
2018-05-08T20:36:00.201Z,16.24
2018-05-08T20:38:28.705Z,16.19
2018-05-08T20:40:57.184Z,16.03
2018-05-08T20:43:25.653Z,15.95
2018-05-08T20:45:54.147Z,15.90
2018-05-08T20:48:22.607Z,15.70
2018-05-08T20:50:51.103Z,15.62
2018-05-08T20:53:19.598Z,15.55
2018-05-08T20:55:48.078Z,15.42
2018-05-08T20:58:17.345Z,15.28
2018-05-08T21:00:45.841Z,15.23
2018-05-08T21:03:14.372Z,15.17
2018-05-08T21:05:42.907Z,15.13
2018-05-08T21:08:11.363Z,15.13
2018-05-08T21:10:39.917Z,15.05
2018-05-08T21:13:08.448Z,14.99
2018-05-08T21:15:36.926Z,14.71
2018-05-08T21:18:08.638Z,14.86
2018-05-08T21:20:37.131Z,14.90
2018-05-08T21:23:05.619Z,14.90
2018-05-08T21:25:34.118Z,14.92
2018-05-08T21:28:08.022Z,14.91
2018-05-08T21:30:41.977Z,14.85
2018-05-08T21:33:10.439Z,14.71
2018-05-08T21:35:39.716Z,14.65
2018-05-08T21:38:08.194Z,14.63
2018-05-08T21:40:36.835Z,14.54
2018-05-08T21:43:06.072Z,14.55
2018-05-08T21:45:34.535Z,14.54
2018-05-08T21:48:03.044Z,14.56
2018-05-08T21:50:31.646Z,14.52
2018-05-08T21:53:00.167Z,14.56
2018-05-08T21:55:28.688Z,14.34
2018-05-08T21:57:57.188Z,14.19
2018-05-08T22:00:25.690Z,14.09
2018-05-08T22:02:54.257Z,14.14
2018-05-08T22:05:22.766Z,14.27
2018-05-08T22:07:51.361Z,14.26
2018-05-08T22:10:19.900Z,14.28
2018-05-08T22:12:48.469Z,14.25
2018-05-08T22:15:16.972Z,14.32
2018-05-08T22:17:45.508Z,14.28
2018-05-08T22:20:13.991Z,14.33
2018-05-08T22:22:42.472Z,14.21
2018-05-08T22:25:10.958Z,14.08
2018-05-08T22:27:39.434Z,14.00
2018-05-08T22:30:07.935Z,13.95
2018-05-08T22:32:36.441Z,13.96
2018-05-08T22:35:04.962Z,14.02
2018-05-08T22:37:33.543Z,13.99
2018-05-08T22:40:02.780Z,13.92
2018-05-08T22:42:31.272Z,13.87
2018-05-08T22:44:59.776Z,13.70
2018-05-08T22:47:28.290Z,13.60
2018-05-08T22:49:57.656Z,13.59
2018-05-08T22:52:26.175Z,13.66
2018-05-08T22:54:55.446Z,13.77
2018-05-08T22:57:24.032Z,13.79
2018-05-08T22:59:53.274Z,13.80
2018-05-08T23:02:22.530Z,13.87
2018-05-08T23:04:51.007Z,14.02
2018-05-08T23:07:19.476Z,14.08
2018-05-08T23:09:47.995Z,14.13
2018-05-08T23:12:16.481Z,14.08
2018-05-08T23:14:44.964Z,14.04
2018-05-08T23:17:13.456Z,13.99
2018-05-08T23:19:42.025Z,14.02
2018-05-08T23:22:10.499Z,13.97
2018-05-08T23:24:38.966Z,13.84
2018-05-08T23:27:07.434Z,13.73
2018-05-08T23:29:36.681Z,13.73
2018-05-08T23:32:05.137Z,13.86
2018-05-08T23:34:33.635Z,13.86
2018-05-08T23:37:02.076Z,13.89
2018-05-08T23:39:30.566Z,13.99
2018-05-08T23:41:59.809Z,13.79
2018-05-08T23:44:28.328Z,13.82
2018-05-08T23:46:56.795Z,13.76
2018-05-08T23:49:25.282Z,13.75
2018-05-08T23:51:53.837Z,13.72
2018-05-08T23:54:22.293Z,13.61
2018-05-08T23:56:50.745Z,13.55
2018-05-08T23:59:19.256Z,13.57
